createdAt,value
2022-10-20T00:01:21.586Z,72.90
2022-10-20T00:03:49.009Z,72.70
2022-10-20T00:06:19.491Z,72.60
2022-10-20T00:08:46.548Z,72.20
2022-10-20T00:11:16.219Z,72.50
2022-10-20T00:13:44.548Z,72.30
2022-10-20T00:16:12.039Z,72.50
2022-10-20T00:18:39.118Z,72.40
2022-10-20T00:21:07.868Z,72.90
2022-10-20T00:23:35.150Z,72.30
2022-10-20T00:26:06.991Z,72.30
2022-10-20T00:28:33.904Z,72.40
2022-10-20T00:31:01.119Z,71.60
2022-10-20T00:33:27.783Z,72.00
2022-10-20T00:35:54.431Z,71.70
2022-10-20T00:38:21.441Z,71.40
2022-10-20T00:40:48.222Z,71.60
2022-10-20T00:43:16.516Z,71.40
2022-10-20T00:45:45.582Z,72.20
2022-10-20T00:48:17.280Z,72.60
2022-10-20T00:50:49.116Z,73.80
2022-10-20T00:53:17.102Z,73.70
2022-10-20T00:55:46.848Z,73.40
2022-10-20T00:58:14.321Z,73.00
2022-10-20T01:00:42.564Z,73.20
2022-10-20T01:03:15.824Z,73.30
2022-10-20T01:05:42.706Z,73.90
2022-10-20T01:08:09.360Z,73.50
2022-10-20T01:10:46.174Z,71.30
2022-10-20T01:13:23.574Z,72.10
2022-10-20T01:16:08.830Z,73.40
2022-10-20T01:18:43.877Z,74.00
2022-10-20T01:21:13.672Z,74.40
2022-10-20T01:24:03.521Z,74.70
2022-10-20T01:26:52.289Z,73.80
2022-10-20T01:29:33.990Z,73.80
2022-10-20T01:32:24.695Z,74.20
2022-10-20T01:35:10.625Z,75.00
2022-10-20T01:37:53.950Z,74.70
2022-10-20T01:40:29.685Z,74.90
2022-10-20T01:42:59.933Z,75.50
2022-10-20T01:45:29.260Z,75.10
2022-10-20T01:47:57.615Z,75.60
2022-10-20T01:50:25.248Z,74.60
2022-10-20T01:52:58.736Z,74.70
2022-10-20T01:55:25.945Z,74.80
2022-10-20T01:58:03.321Z,74.10
2022-10-20T02:00:30.213Z,74.40
2022-10-20T02:03:04.395Z,74.90
2022-10-20T02:05:53.167Z,75.30
2022-10-20T02:08:32.336Z,75.60
2022-10-20T02:11:02.081Z,74.70
2022-10-20T02:13:29.754Z,75.70
2022-10-20T02:16:00.285Z,75.10
2022-10-20T02:18:37.227Z,74.90
2022-10-20T02:21:04.264Z,75.40
2022-10-20T02:23:35.102Z,76.30
2022-10-20T02:26:06.947Z,75.70
2022-10-20T02:28:36.151Z,74.70
2022-10-20T02:31:03.867Z,74.90
2022-10-20T02:33:31.190Z,75.40
2022-10-20T02:35:59.445Z,76.10
2022-10-20T02:38:26.345Z,75.00
2022-10-20T02:40:52.956Z,75.50
2022-10-20T02:43:19.566Z,75.20
2022-10-20T02:45:46.218Z,74.80
2022-10-20T02:48:12.925Z,75.70
2022-10-20T02:50:39.604Z,75.30
2022-10-20T02:53:06.880Z,74.40
2022-10-20T02:55:33.518Z,74.20
2022-10-20T02:58:00.122Z,74.00
2022-10-20T03:00:30.922Z,74.50
2022-10-20T03:02:57.798Z,74.30
2022-10-20T03:05:24.705Z,73.80
2022-10-20T03:07:51.383Z,74.60
2022-10-20T03:10:18.420Z,74.00
2022-10-20T03:12:45.186Z,74.90
2022-10-20T03:15:12.291Z,74.10
2022-10-20T03:17:39.319Z,75.20
2022-10-20T03:20:06.937Z,74.30
2022-10-20T03:22:33.645Z,74.90
2022-10-20T03:25:00.276Z,74.00
2022-10-20T03:27:26.893Z,74.20
2022-10-20T03:29:53.516Z,73.60
2022-10-20T03:32:20.143Z,74.00
2022-10-20T03:34:46.830Z,73.70
2022-10-20T03:37:13.493Z,74.60
2022-10-20T03:39:40.193Z,74.30
2022-10-20T03:42:06.794Z,75.00
2022-10-20T03:44:33.401Z,74.80
2022-10-20T03:47:00.210Z,74.20
2022-10-20T03:49:26.897Z,74.80
2022-10-20T03:51:53.657Z,74.60
2022-10-20T03:54:20.321Z,74.60
2022-10-20T03:56:46.959Z,73.00
2022-10-20T03:59:13.782Z,73.40
2022-10-20T04:01:44.097Z,72.60
2022-10-20T04:04:11.276Z,74.30
2022-10-20T04:06:37.942Z,73.00
2022-10-20T04:09:05.049Z,72.30
2022-10-20T04:11:32.739Z,72.10
2022-10-20T04:13:59.390Z,73.50
2022-10-20T04:16:26.151Z,73.90
2022-10-20T04:18:53.434Z,72.70
2022-10-20T04:21:20.154Z,73.20
2022-10-20T04:23:46.804Z,74.40
2022-10-20T04:26:15.397Z,73.30
2022-10-20T04:28:42.305Z,73.30
2022-10-20T04:31:09.608Z,73.20
2022-10-20T04:33:36.337Z,73.20
2022-10-20T04:36:08.550Z,73.60
2022-10-20T04:38:35.869Z,74.00
2022-10-20T04:41:04.525Z,74.30
2022-10-20T04:43:32.550Z,74.50
2022-10-20T04:46:07.259Z,74.50
2022-10-20T04:48:35.711Z,74.70
2022-10-20T04:51:04.869Z,74.00
2022-10-20T04:53:31.560Z,74.10
2022-10-20T04:55:58.796Z,74.30
2022-10-20T04:58:26.016Z,73.80
2022-10-20T05:00:53.066Z,75.00
2022-10-20T05:03:20.102Z,75.20
2022-10-20T05:05:47.658Z,75.60
2022-10-20T05:08:14.447Z,76.10
2022-10-20T05:10:41.135Z,76.30
2022-10-20T05:13:07.772Z,76.40
2022-10-20T05:15:34.444Z,74.10
2022-10-20T05:18:01.080Z,74.10
2022-10-20T05:20:30.919Z,75.40
2022-10-20T05:22:57.744Z,75.20
2022-10-20T05:25:36.024Z,75.90
2022-10-20T05:28:03.676Z,76.00
2022-10-20T05:30:30.405Z,75.30
2022-10-20T05:32:57.163Z,76.00
2022-10-20T05:35:23.808Z,75.50
2022-10-20T05:37:50.432Z,76.50
2022-10-20T05:40:17.168Z,75.40
2022-10-20T05:42:43.786Z,75.40
2022-10-20T05:45:10.468Z,76.70
2022-10-20T05:47:37.088Z,77.40
2022-10-20T05:50:04.032Z,76.40
2022-10-20T05:52:30.648Z,77.30
2022-10-20T05:54:57.400Z,77.50
2022-10-20T05:57:24.173Z,76.50
2022-10-20T05:59:51.080Z,77.20
2022-10-20T06:02:17.882Z,77.20
2022-10-20T06:04:44.640Z,76.40
2022-10-20T06:07:11.275Z,77.40
2022-10-20T06:09:38.752Z,77.00
2022-10-20T06:12:06.068Z,77.10
2022-10-20T06:14:32.749Z,77.60
2022-10-20T06:16:59.396Z,77.00
2022-10-20T06:19:26.476Z,77.80
2022-10-20T06:21:53.533Z,77.50
2022-10-20T06:24:20.448Z,77.80
2022-10-20T06:26:47.353Z,79.00
2022-10-20T06:29:16.606Z,79.00
2022-10-20T06:31:48.976Z,78.50
2022-10-20T06:34:18.505Z,78.90
2022-10-20T06:36:46.039Z,78.90
2022-10-20T06:39:15.606Z,78.90
2022-10-20T06:41:42.318Z,77.90
2022-10-20T06:44:08.999Z,78.10
2022-10-20T06:46:37.032Z,79.60
2022-10-20T06:49:06.212Z,80.00
2022-10-20T06:51:33.977Z,80.90
2022-10-20T06:54:01.366Z,81.10
2022-10-20T06:56:30.422Z,80.20
2022-10-20T06:58:58.770Z,80.70
2022-10-20T07:01:32.578Z,79.90
2022-10-20T07:04:01.768Z,80.00
2022-10-20T07:06:33.881Z,80.20
2022-10-20T07:09:01.457Z,79.30
2022-10-20T07:11:29.910Z,79.60
2022-10-20T07:13:58.631Z,80.70
2022-10-20T07:16:27.095Z,82.00
2022-10-20T07:18:53.989Z,81.60
2022-10-20T07:21:22.507Z,82.30
2022-10-20T07:23:50.117Z,83.90
2022-10-20T07:26:18.103Z,82.40
2022-10-20T07:28:49.898Z,83.50
2022-10-20T07:31:23.149Z,84.50
2022-10-20T07:34:06.938Z,82.00
2022-10-20T07:36:37.952Z,82.50
2022-10-20T07:39:05.859Z,81.50
2022-10-20T07:41:33.384Z,82.30
2022-10-20T07:44:00.101Z,77.80
2022-10-20T07:46:26.716Z,79.00
2022-10-20T07:48:53.459Z,78.20
2022-10-20T07:51:25.643Z,78.40
2022-10-20T07:54:00.819Z,77.80
2022-10-20T07:56:29.828Z,78.30
2022-10-20T07:58:56.564Z,77.00
2022-10-20T08:01:23.533Z,77.50
2022-10-20T08:03:50.625Z,81.70
2022-10-20T08:06:17.489Z,80.60
2022-10-20T08:08:44.266Z,80.10
2022-10-20T08:11:11.369Z,80.60
2022-10-20T08:13:40.813Z,81.00
2022-10-20T08:16:09.000Z,81.20
2022-10-20T08:18:36.009Z,78.20
2022-10-20T08:21:08.575Z,83.30
2022-10-20T08:23:38.371Z,77.50
2022-10-20T08:26:10.594Z,78.90
2022-10-20T08:28:38.224Z,79.90
2022-10-20T08:31:06.542Z,80.40
2022-10-20T08:33:33.516Z,82.40
2022-10-20T08:36:06.595Z,82.70
2022-10-20T08:38:33.615Z,86.20
2022-10-20T08:41:01.328Z,82.10
2022-10-20T08:43:28.948Z,85.00
2022-10-20T08:45:55.625Z,83.00
2022-10-20T08:48:27.909Z,87.20
2022-10-20T08:50:54.888Z,83.40
2022-10-20T08:53:23.754Z,84.40
2022-10-20T08:55:50.924Z,84.20
2022-10-20T08:58:21.130Z,83.40
2022-10-20T09:00:49.271Z,84.40
2022-10-20T09:03:17.568Z,88.20
2022-10-20T09:05:48.634Z,90.10
2022-10-20T09:08:15.704Z,90.20
2022-10-20T09:10:47.895Z,88.10
2022-10-20T09:13:21.032Z,89.10
2022-10-20T09:15:52.240Z,90.80
2022-10-20T09:18:19.688Z,90.40
2022-10-20T09:21:01.804Z,90.60
2022-10-20T09:23:42.592Z,91.40
2022-10-20T09:26:30.343Z,90.70
2022-10-20T09:29:13.373Z,91.90
2022-10-20T09:34:34.344Z,91.70
2022-10-20T09:37:07.197Z,90.30
2022-10-20T09:39:41.558Z,91.40
2022-10-20T09:42:14.960Z,90.10
2022-10-20T09:44:52.540Z,90.20
2022-10-20T09:47:20.312Z,88.90
2022-10-20T09:49:47.320Z,90.00
2022-10-20T09:52:20.866Z,89.80
2022-10-20T09:54:48.688Z,87.60
2022-10-20T09:57:20.622Z,85.40
2022-10-20T09:59:49.500Z,86.00
2022-10-20T10:02:16.076Z,86.30
2022-10-20T10:04:45.655Z,86.30
2022-10-20T10:07:27.720Z,86.40
2022-10-20T10:10:05.423Z,85.80
2022-10-20T10:12:35.974Z,82.70
2022-10-20T10:15:06.959Z,84.20
2022-10-20T10:17:44.083Z,84.20
2022-10-20T10:20:13.897Z,85.10
2022-10-20T10:22:41.680Z,84.70
2022-10-20T10:25:15.612Z,85.70
2022-10-20T10:27:57.855Z,83.90
2022-10-20T10:30:27.483Z,83.50
2022-10-20T10:32:54.528Z,82.80
2022-10-20T10:35:24.278Z,80.00
2022-10-20T10:37:52.071Z,82.30
2022-10-20T10:40:45.181Z,80.70
2022-10-20T10:43:44.975Z,80.20
2022-10-20T10:46:20.455Z,81.90
2022-10-20T10:49:24.623Z,80.10
2022-10-20T10:52:23.819Z,81.70
2022-10-20T10:54:53.349Z,79.30
2022-10-20T10:58:04.640Z,80.90
2022-10-20T11:00:49.924Z,78.30
2022-10-20T11:03:39.835Z,77.90
2022-10-20T11:06:21.572Z,78.00
2022-10-20T11:09:27.864Z,76.20
2022-10-20T11:12:17.525Z,77.00
2022-10-20T11:15:24.693Z,75.30
2022-10-20T11:18:29.780Z,74.30
2022-10-20T11:21:20.571Z,74.40
2022-10-20T11:24:11.958Z,73.80
2022-10-20T11:26:41.785Z,73.80
2022-10-20T11:29:21.080Z,73.50
2022-10-20T11:32:11.063Z,74.90
2022-10-20T11:34:49.767Z,80.00
2022-10-20T11:37:26.219Z,77.70
2022-10-20T11:40:01.215Z,75.40
2022-10-20T11:42:45.096Z,73.20
2022-10-20T11:45:26.824Z,72.10
2022-10-20T11:48:12.819Z,72.20
2022-10-20T11:50:40.466Z,72.00
2022-10-20T11:53:20.397Z,71.60
2022-10-20T12:00:00.813Z,88.40
2022-10-20T12:02:45.439Z,87.80
2022-10-20T12:11:17.368Z,90.70
2022-10-20T12:13:58.176Z,90.60
2022-10-20T12:17:04.740Z,98.50
2022-10-20T12:19:33.670Z,98.10
2022-10-20T12:22:14.055Z,97.30
2022-10-20T12:24:43.192Z,98.30
2022-10-20T12:27:09.974Z,97.00
2022-10-20T12:29:36.820Z,96.50
2022-10-20T12:32:24.047Z,95.60
2022-10-20T12:35:04.740Z,94.80
2022-10-20T12:37:33.967Z,95.80
2022-10-20T12:40:20.459Z,95.30
2022-10-20T12:42:49.503Z,92.70
2022-10-20T12:45:16.153Z,94.80
2022-10-20T12:47:51.492Z,93.80
2022-10-20T12:50:33.339Z,93.50
2022-10-20T12:53:14.335Z,94.30
2022-10-20T12:55:42.295Z,91.60
2022-10-20T12:58:17.926Z,92.20
2022-10-20T13:00:47.708Z,92.10
2022-10-20T13:03:37.644Z,92.10
2022-10-20T13:06:28.581Z,92.10
2022-10-20T13:09:04.881Z,92.80
2022-10-20T13:11:37.801Z,92.10
2022-10-20T13:14:28.096Z,92.40
2022-10-20T13:17:10.089Z,93.80
2022-10-20T13:19:49.282Z,93.30
2022-10-20T13:22:38.090Z,93.40
2022-10-20T13:25:12.076Z,93.60
2022-10-20T13:27:39.142Z,93.60
2022-10-20T13:30:10.332Z,92.80
2022-10-20T13:33:01.594Z,92.50
2022-10-20T13:35:46.789Z,92.90
2022-10-20T13:38:19.973Z,92.90
2022-10-20T13:41:34.655Z,92.80
2022-10-20T13:44:30.519Z,92.90
2022-10-20T13:47:12.185Z,92.60
2022-10-20T13:49:59.626Z,94.10
2022-10-20T13:52:30.941Z,93.60
2022-10-20T13:54:59.095Z,93.20
2022-10-20T13:57:29.086Z,93.90
2022-10-20T14:00:00.990Z,94.80
2022-10-20T14:02:34.972Z,92.60
2022-10-20T14:05:06.976Z,93.30
2022-10-20T14:07:44.059Z,92.60
2022-10-20T14:10:26.817Z,93.30
2022-10-20T14:12:54.071Z,93.60
2022-10-20T14:15:24.993Z,93.50
2022-10-20T14:18:07.537Z,93.50
2022-10-20T14:20:39.254Z,93.30
2022-10-20T14:23:06.482Z,93.60
2022-10-20T14:25:33.633Z,92.10
2022-10-20T14:28:03.852Z,92.80
2022-10-20T14:30:35.384Z,94.10
2022-10-20T14:33:05.470Z,93.40
2022-10-20T14:35:39.870Z,93.70
2022-10-20T14:38:18.545Z,93.50
2022-10-20T14:40:58.785Z,92.90
2022-10-20T14:43:36.507Z,93.40
2022-10-20T14:46:04.102Z,92.20
2022-10-20T14:48:53.878Z,92.40
2022-10-20T14:51:32.834Z,92.80
2022-10-20T14:54:17.178Z,93.20
2022-10-20T14:56:49.942Z,92.80
2022-10-20T14:59:22.119Z,92.90
2022-10-20T15:02:10.169Z,92.70
2022-10-20T15:04:41.322Z,92.70
2022-10-20T15:07:11.138Z,92.30
2022-10-20T15:09:41.093Z,90.50
2022-10-20T15:12:17.978Z,91.70
2022-10-20T15:14:50.513Z,91.30
2022-10-20T15:17:41.746Z,91.00
2022-10-20T15:20:30.318Z,90.70
2022-10-20T15:22:58.523Z,91.20
2022-10-20T15:25:26.473Z,91.90
2022-10-20T15:27:53.536Z,91.70
2022-10-20T15:30:21.930Z,92.10
2022-10-20T15:32:49.012Z,90.30
2022-10-20T15:35:18.978Z,90.20
2022-10-20T15:37:52.794Z,90.30
2022-10-20T15:40:22.517Z,89.80
2022-10-20T15:42:49.281Z,89.10
2022-10-20T15:45:21.910Z,90.90
2022-10-20T15:47:48.953Z,89.40
2022-10-20T15:50:16.243Z,87.90
2022-10-20T15:52:43.132Z,86.90
2022-10-20T15:55:12.603Z,89.20
2022-10-20T15:57:39.576Z,88.00
2022-10-20T16:00:07.099Z,87.30
2022-10-20T16:02:33.805Z,90.10
2022-10-20T16:05:00.643Z,86.00
2022-10-20T16:07:27.618Z,85.90
2022-10-20T16:09:54.357Z,85.50
2022-10-20T16:12:21.106Z,86.50
2022-10-20T16:14:47.767Z,84.60
2022-10-20T16:17:14.584Z,86.40
2022-10-20T16:19:41.239Z,86.00
2022-10-20T16:22:08.015Z,85.70
2022-10-20T16:24:34.828Z,88.40
2022-10-20T16:29:35.522Z,85.20
2022-10-20T16:32:02.693Z,84.20
2022-10-20T16:34:29.746Z,84.50
2022-10-20T16:36:56.692Z,85.20
2022-10-20T16:39:23.609Z,85.20
2022-10-20T16:41:50.356Z,84.20
2022-10-20T16:44:17.097Z,86.50
2022-10-20T16:46:44.009Z,86.70
2022-10-20T16:49:11.034Z,86.60
2022-10-20T16:51:37.830Z,86.30
2022-10-20T16:54:04.899Z,84.90
2022-10-20T16:56:31.780Z,83.30
2022-10-20T16:58:58.586Z,85.40
2022-10-20T17:01:25.411Z,84.90
2022-10-20T17:03:53.097Z,85.50
2022-10-20T17:06:22.815Z,85.40
2022-10-20T17:08:50.147Z,84.10
2022-10-20T17:11:22.846Z,82.20
2022-10-20T17:13:50.142Z,85.50
2022-10-20T17:16:21.496Z,83.90
2022-10-20T17:18:50.436Z,85.50
2022-10-20T17:21:17.120Z,84.10
2022-10-20T17:23:44.859Z,84.30
2022-10-20T17:26:20.575Z,85.00
2022-10-20T17:28:48.975Z,85.60
2022-10-20T17:33:48.870Z,87.20
2022-10-20T17:36:15.919Z,88.90
2022-10-20T17:38:43.062Z,89.20
2022-10-20T17:41:12.518Z,87.80
2022-10-20T17:43:39.674Z,87.50
2022-10-20T17:46:08.877Z,87.80
2022-10-20T17:48:36.343Z,87.50
2022-10-20T17:51:09.930Z,86.30
2022-10-20T17:53:38.677Z,85.70
2022-10-20T17:56:12.282Z,85.40
2022-10-20T17:58:39.069Z,84.90
2022-10-20T18:01:15.191Z,83.80
2022-10-20T18:03:42.495Z,86.70
2022-10-20T18:06:12.211Z,84.80
2022-10-20T18:08:39.410Z,83.40
2022-10-20T18:11:14.108Z,82.30
2022-10-20T18:13:41.141Z,85.60
2022-10-20T18:16:13.424Z,83.70
2022-10-20T18:18:40.625Z,86.20
2022-10-20T18:21:09.313Z,84.10
2022-10-20T18:23:36.949Z,85.00
2022-10-20T18:26:06.726Z,83.90
2022-10-20T18:28:34.134Z,84.20
2022-10-20T18:31:08.230Z,84.20
2022-10-20T18:33:35.089Z,87.60
2022-10-20T18:36:06.036Z,85.20
2022-10-20T18:38:35.711Z,84.50
2022-10-20T18:41:07.437Z,83.90
2022-10-20T18:43:34.476Z,84.90
2022-10-20T18:46:02.642Z,85.70
2022-10-20T18:48:30.876Z,82.70
2022-10-20T18:51:00.188Z,84.70
2022-10-20T18:53:28.457Z,84.50
2022-10-20T18:56:15.417Z,82.40
2022-10-20T18:58:43.933Z,83.60
2022-10-20T19:01:13.043Z,84.60
2022-10-20T19:03:40.870Z,81.00
2022-10-20T19:06:13.471Z,86.80
2022-10-20T19:08:40.765Z,85.80
2022-10-20T19:11:11.065Z,88.00
2022-10-20T19:13:38.310Z,86.20
2022-10-20T19:16:10.646Z,86.30
2022-10-20T19:18:40.493Z,84.70
2022-10-20T19:21:08.192Z,88.60
2022-10-20T19:23:41.670Z,87.60
2022-10-20T19:26:11.360Z,86.50
2022-10-20T19:28:40.633Z,86.70
2022-10-20T19:31:21.269Z,87.90
2022-10-20T19:33:50.435Z,89.80
2022-10-20T19:36:17.661Z,87.60
2022-10-20T19:38:44.801Z,87.20
2022-10-20T19:41:11.928Z,89.20
2022-10-20T19:43:39.454Z,87.60
2022-10-20T19:46:08.353Z,88.40
2022-10-20T19:48:35.966Z,88.10
2022-10-20T19:51:03.364Z,87.40
2022-10-20T19:53:30.164Z,88.90
2022-10-20T19:55:57.104Z,88.20
2022-10-20T19:58:24.268Z,88.10
2022-10-20T20:00:53.094Z,90.30
2022-10-20T20:03:19.934Z,91.00
2022-10-20T20:05:48.336Z,90.80
2022-10-20T20:08:15.277Z,89.50
2022-10-20T20:10:45.018Z,90.80
2022-10-20T20:13:11.750Z,89.80
2022-10-20T20:15:38.481Z,91.10
2022-10-20T20:18:06.102Z,89.60
2022-10-20T20:20:32.817Z,91.00
2022-10-20T20:22:59.489Z,90.80
2022-10-20T20:25:26.139Z,90.70
2022-10-20T20:27:54.249Z,92.00
2022-10-20T20:30:20.964Z,90.80
2022-10-20T20:32:48.701Z,91.20
2022-10-20T20:35:17.567Z,91.20
2022-10-20T20:37:44.310Z,91.20
2022-10-20T20:40:11.237Z,91.60
2022-10-20T20:42:37.915Z,91.00
2022-10-20T20:45:05.019Z,90.70
2022-10-20T20:47:31.979Z,91.10
2022-10-20T20:50:00.485Z,91.20
2022-10-20T20:52:29.384Z,91.20
2022-10-20T20:54:56.357Z,91.40
2022-10-20T20:57:23.193Z,91.60
2022-10-20T20:59:50.355Z,91.50
2022-10-20T21:02:18.150Z,91.50
2022-10-20T21:04:44.851Z,91.50
2022-10-20T21:07:12.277Z,91.90
2022-10-20T21:09:38.968Z,92.30
2022-10-20T21:12:05.953Z,92.00
2022-10-20T21:14:33.226Z,91.50
2022-10-20T21:17:00.854Z,92.10
2022-10-20T21:19:27.509Z,92.40
2022-10-20T21:22:01.395Z,94.60
2022-10-20T21:24:28.289Z,93.70
2022-10-20T21:26:55.158Z,92.70
2022-10-20T21:29:22.009Z,92.70
2022-10-20T21:31:48.731Z,91.70
2022-10-20T21:34:15.442Z,92.00
2022-10-20T21:36:42.351Z,91.60
2022-10-20T21:39:12.631Z,91.40
2022-10-20T21:41:39.426Z,91.60
2022-10-20T21:44:08.038Z,90.90
2022-10-20T21:46:39.031Z,91.20
2022-10-20T21:49:08.093Z,91.70
2022-10-20T21:51:39.964Z,91.60
2022-10-20T21:54:10.412Z,92.30
2022-10-20T21:56:38.757Z,91.20
2022-10-20T21:59:06.202Z,91.30
2022-10-20T22:01:33.062Z,91.60
2022-10-20T22:03:59.979Z,91.60
2022-10-20T22:06:27.837Z,91.70
2022-10-20T22:08:57.046Z,92.20
2022-10-20T22:11:28.052Z,91.00
2022-10-20T22:13:55.242Z,91.20
2022-10-20T22:16:25.887Z,91.40
2022-10-20T22:18:57.247Z,91.20
2022-10-20T22:21:24.011Z,91.70
2022-10-20T22:23:53.540Z,91.50
2022-10-20T22:26:20.773Z,91.70
2022-10-20T22:28:47.489Z,91.00
2022-10-20T22:31:17.295Z,91.50
2022-10-20T22:33:44.874Z,91.20
2022-10-20T22:36:11.637Z,91.80
2022-10-20T22:38:38.290Z,91.20
2022-10-20T22:41:05.283Z,91.00
2022-10-20T22:43:32.378Z,90.20
2022-10-20T22:45:59.319Z,91.40
2022-10-20T22:48:26.151Z,90.00
2022-10-20T22:50:52.979Z,90.10
2022-10-20T22:53:19.914Z,90.50
2022-10-20T22:55:46.719Z,90.60
2022-10-20T22:58:13.619Z,90.50
2022-10-20T23:00:41.440Z,91.10
2022-10-20T23:03:08.368Z,90.50
2022-10-20T23:05:35.537Z,91.30
2022-10-20T23:08:02.333Z,91.40
2022-10-20T23:10:29.136Z,91.20
2022-10-20T23:12:55.786Z,90.30
2022-10-20T23:15:22.552Z,90.70
2022-10-20T23:17:49.399Z,91.30
2022-10-20T23:20:16.334Z,91.20
2022-10-20T23:22:43.115Z,91.60
2022-10-20T23:25:10.121Z,90.80
2022-10-20T23:27:37.206Z,91.10
2022-10-20T23:30:04.477Z,91.10
2022-10-20T23:32:31.329Z,90.80
2022-10-20T23:34:58.012Z,90.80
2022-10-20T23:37:24.716Z,91.00
2022-10-20T23:39:51.386Z,91.20
2022-10-20T23:42:18.109Z,90.70
2022-10-20T23:44:44.851Z,91.20
2022-10-20T23:47:11.631Z,91.00
2022-10-20T23:49:38.341Z,91.10
2022-10-20T23:52:05.250Z,91.30
2022-10-20T23:54:31.952Z,91.30
2022-10-20T23:56:58.682Z,91.10
2022-10-20T23:59:25.372Z,91.10
